sensor_id;sensor_type;location;lat;lon;timestamp;pressure;altitude;pressure_sealevel;temperature;humidity
63700;BME280;49845;47.130;142.766;2023-08-30T00:01:10;101277.50;;;16.92;100.00
63700;BME280;49845;47.130;142.766;2023-08-30T00:03:41;101273.13;;;16.91;100.00
63700;BME280;49845;47.130;142.766;2023-08-30T00:06:13;101281.19;;;16.86;100.00
63700;BME280;49845;47.130;142.766;2023-08-30T00:08:44;101280.22;;;16.89;100.00
63700;BME280;49845;47.130;142.766;2023-08-30T00:11:14;101285.50;;;16.89;100.00
63700;BME280;49845;47.130;142.766;2023-08-30T00:13:45;101274.09;;;16.88;100.00
63700;BME280;49845;47.130;142.766;2023-08-30T00:16:16;101269.59;;;16.92;100.00
63700;BME280;49845;47.130;142.766;2023-08-30T00:18:47;101283.53;;;16.97;100.00
63700;BME280;49845;47.130;142.766;2023-08-30T00:21:19;101266.09;;;16.90;100.00
63700;BME280;49845;47.130;142.766;2023-08-30T00:23:49;101285.09;;;17.04;100.00
63700;BME280;49845;47.130;142.766;2023-08-30T00:26:20;101284.84;;;17.13;100.00
63700;BME280;49845;47.130;142.766;2023-08-30T00:28:50;101271.66;;;17.13;100.00
63700;BME280;49845;47.130;142.766;2023-08-30T00:31:20;101268.19;;;17.11;100.00
63700;BME280;49845;47.130;142.766;2023-08-30T00:33:51;101263.97;;;17.04;100.00
63700;BME280;49845;47.130;142.766;2023-08-30T00:36:23;101260.44;;;17.05;100.00
63700;BME280;49845;47.130;142.766;2023-08-30T00:38:54;101251.50;;;17.09;100.00
63700;BME280;49845;47.130;142.766;2023-08-30T00:41:24;101261.06;;;17.15;100.00
63700;BME280;49845;47.130;142.766;2023-08-30T00:43:55;101258.13;;;17.25;100.00
63700;BME280;49845;47.130;142.766;2023-08-30T00:46:25;101254.63;;;17.23;100.00
63700;BME280;49845;47.130;142.766;2023-08-30T00:48:56;101264.66;;;17.42;100.00
63700;BME280;49845;47.130;142.766;2023-08-30T00:51:29;101268.22;;;17.41;100.00
63700;BME280;49845;47.130;142.766;2023-08-30T00:54:00;101248.88;;;17.40;100.00
63700;BME280;49845;47.130;142.766;2023-08-30T00:56:32;101294.69;;;17.71;100.00
63700;BME280;49845;47.130;142.766;2023-08-30T00:59:05;101291.94;;;17.74;100.00
63700;BME280;49845;47.130;142.766;2023-08-30T01:01:35;101276.53;;;17.58;100.00
63700;BME280;49845;47.130;142.766;2023-08-30T01:04:08;101287.94;;;17.60;100.00
63700;BME280;49845;47.130;142.766;2023-08-30T01:06:41;101285.09;;;17.66;100.00
63700;BME280;49845;47.130;142.766;2023-08-30T01:09:11;101281.72;;;17.61;100.00
63700;BME280;49845;47.130;142.766;2023-08-30T01:11:48;101287.94;;;17.60;100.00
63700;BME280;49845;47.130;142.766;2023-08-30T01:14:22;101278.53;;;17.50;100.00
63700;BME280;49845;47.130;142.766;2023-08-30T01:16:56;101288.81;;;17.59;100.00
63700;BME280;49845;47.130;142.766;2023-08-30T01:19:41;101274.88;;;17.54;100.00
63700;BME280;49845;47.130;142.766;2023-08-30T01:22:16;101266.13;;;17.52;100.00
63700;BME280;49845;47.130;142.766;2023-08-30T01:25:05;101217.56;;;17.27;100.00
63700;BME280;49845;47.130;142.766;2023-08-30T01:27:40;101260.94;;;17.49;100.00
63700;BME280;49845;47.130;142.766;2023-08-30T01:30:12;101280.91;;;17.59;100.00
63700;BME280;49845;47.130;142.766;2023-08-30T01:32:44;101275.69;;;17.58;100.00
63700;BME280;49845;47.130;142.766;2023-08-30T01:35:16;101276.53;;;17.58;100.00
63700;BME280;49845;47.130;142.766;2023-08-30T01:37:48;101269.53;;;17.57;100.00
63700;BME280;49845;47.130;142.766;2023-08-30T01:40:19;101275.63;;;17.59;100.00
63700;BME280;49845;47.130;142.766;2023-08-30T01:42:52;101274.88;;;17.54;100.00
63700;BME280;49845;47.130;142.766;2023-08-30T01:45:24;101269.69;;;17.51;100.00
63700;BME280;49845;47.130;142.766;2023-08-30T01:47:55;101280.47;;;17.45;100.00
63700;BME280;49845;47.130;142.766;2023-08-30T01:50:26;101266.56;;;17.37;100.00
63700;BME280;49845;47.130;142.766;2023-08-30T01:52:57;101287.66;;;17.40;100.00
63700;BME280;49845;47.130;142.766;2023-08-30T01:55:30;101281.53;;;17.38;100.00
63700;BME280;49845;47.130;142.766;2023-08-30T01:58:06;101277.16;;;17.37;100.00
63700;BME280;49845;47.130;142.766;2023-08-30T02:00:38;101282.44;;;17.37;100.00
63700;BME280;49845;47.130;142.766;2023-08-30T02:03:09;101229.41;;;17.13;100.00
63700;BME280;49845;47.130;142.766;2023-08-30T02:05:49;101258.19;;;17.22;100.00
63700;BME280;49845;47.130;142.766;2023-08-30T02:08:22;101273.63;;;17.38;100.00
63700;BME280;49845;47.130;142.766;2023-08-30T02:11:01;101292.84;;;17.43;100.00
63700;BME280;49845;47.130;142.766;2023-08-30T02:13:35;101296.31;;;17.45;100.00
63700;BME280;49845;47.130;142.766;2023-08-30T02:16:08;101279.50;;;17.48;100.00
63700;BME280;49845;47.130;142.766;2023-08-30T02:18:40;101280.75;;;17.65;100.00
63700;BME280;49845;47.130;142.766;2023-08-30T02:21:11;101259.47;;;17.70;100.00
63700;BME280;49845;47.130;142.766;2023-08-30T02:23:42;101261.22;;;17.99;100.00
63700;BME280;49845;47.130;142.766;2023-08-30T02:26:12;101267.94;;;18.09;100.00
63700;BME280;49845;47.130;142.766;2023-08-30T02:28:44;101262.38;;;18.19;100.00
63700;BME280;49845;47.130;142.766;2023-08-30T02:31:15;101265.84;;;18.21;100.00
63700;BME280;49845;47.130;142.766;2023-08-30T02:33:46;101256.50;;;18.37;100.00
63700;BME280;49845;47.130;142.766;2023-08-30T02:36:16;101266.66;;;18.49;100.00
63700;BME280;49845;47.130;142.766;2023-08-30T02:38:47;101254.88;;;18.60;100.00
63700;BME280;49845;47.130;142.766;2023-08-30T02:41:17;101249.00;;;18.77;100.00
63700;BME280;49845;47.130;142.766;2023-08-30T02:43:49;101247.50;;;18.94;100.00
63700;BME280;49845;47.130;142.766;2023-08-30T02:46:20;101245.47;;;19.03;100.00
63700;BME280;49845;47.130;142.766;2023-08-30T02:48:50;101195.19;;;18.76;100.00
63700;BME280;49845;47.130;142.766;2023-08-30T02:51:21;101236.56;;;19.04;100.00
63700;BME280;49845;47.130;142.766;2023-08-30T02:53:51;101229.56;;;19.03;99.27
63700;BME280;49845;47.130;142.766;2023-08-30T02:56:22;101225.78;;;18.85;97.83
63700;BME280;49845;47.130;142.766;2023-08-30T02:58:55;101207.53;;;18.77;97.85
63700;BME280;49845;47.130;142.766;2023-08-30T03:01:25;101209.03;;;18.84;98.20
63700;BME280;49845;47.130;142.766;2023-08-30T03:03:56;101199.06;;;18.66;96.86
63700;BME280;49845;47.130;142.766;2023-08-30T03:06:26;101202.16;;;18.52;94.31
63700;BME280;49845;47.130;142.766;2023-08-30T03:08:57;101193.19;;;18.31;95.21
63700;BME280;49845;47.130;142.766;2023-08-30T03:11:27;101183.13;;;18.16;96.37
63700;BME280;49845;47.130;142.766;2023-08-30T03:14:00;101175.06;;;17.92;98.37
63700;BME280;49845;47.130;142.766;2023-08-30T03:16:30;101180.78;;;17.80;100.00
63700;BME280;49845;47.130;142.766;2023-08-30T03:19:02;101189.00;;;17.69;100.00
63700;BME280;49845;47.130;142.766;2023-08-30T03:21:33;101200.72;;;17.60;100.00
63700;BME280;49845;47.130;142.766;2023-08-30T03:24:04;101209.53;;;17.59;100.00
63700;BME280;49845;47.130;142.766;2023-08-30T03:26:34;101205.63;;;17.73;100.00
63700;BME280;49845;47.130;142.766;2023-08-30T03:29:07;101198.22;;;17.85;100.00
63700;BME280;49845;47.130;142.766;2023-08-30T03:31:37;101192.47;;;17.99;100.00
63700;BME280;49845;47.130;142.766;2023-08-30T03:34:08;101196.50;;;18.11;100.00
63700;BME280;49845;47.130;142.766;2023-08-30T03:36:40;101194.63;;;18.15;100.00
63700;BME280;49845;47.130;142.766;2023-08-30T03:39:12;101198.91;;;18.19;100.00
63700;BME280;49845;47.130;142.766;2023-08-30T03:41:42;101210.25;;;18.22;100.00
63700;BME280;49845;47.130;142.766;2023-08-30T03:44:15;101205.16;;;18.16;100.00
63700;BME280;49845;47.130;142.766;2023-08-30T03:46:46;101195.81;;;18.04;100.00
63700;BME280;49845;47.130;142.766;2023-08-30T03:49:17;101200.63;;;17.93;100.00
63700;BME280;49845;47.130;142.766;2023-08-30T03:51:48;101209.78;;;17.81;100.00
63700;BME280;49845;47.130;142.766;2023-08-30T03:54:18;101217.25;;;17.67;100.00
63700;BME280;49845;47.130;142.766;2023-08-30T03:56:49;101214.06;;;17.56;100.00
63700;BME280;49845;47.130;142.766;2023-08-30T03:59:21;101213.22;;;17.55;100.00
63700;BME280;49845;47.130;142.766;2023-08-30T04:01:54;101200.03;;;17.54;100.00
63700;BME280;49845;47.130;142.766;2023-08-30T04:04:25;101208.09;;;17.49;100.00
63700;BME280;49845;47.130;142.766;2023-08-30T04:06:55;101204.38;;;17.56;100.00
63700;BME280;49845;47.130;142.766;2023-08-30T04:09:26;101183.69;;;17.69;100.00
63700;BME280;49845;47.130;142.766;2023-08-30T04:11:57;101184.13;;;17.85;100.00
63700;BME280;49845;47.130;142.766;2023-08-30T04:14:30;101169.69;;;17.95;100.00
63700;BME280;49845;47.130;142.766;2023-08-30T04:17:01;101164.31;;;17.98;99.18
63700;BME280;49845;47.130;142.766;2023-08-30T04:19:31;101171.25;;;18.02;98.31
63700;BME280;49845;47.130;142.766;2023-08-30T04:22:02;101147.91;;;17.87;96.53
63700;BME280;49845;47.130;142.766;2023-08-30T04:24:32;101159.66;;;17.77;93.94
63700;BME280;49845;47.130;142.766;2023-08-30T04:27:03;101160.13;;;17.63;92.61
63700;BME280;49845;47.130;142.766;2023-08-30T04:29:35;101165.34;;;17.64;93.20
63700;BME280;49845;47.130;142.766;2023-08-30T04:32:06;101161.53;;;17.75;91.77
63700;BME280;49845;47.130;142.766;2023-08-30T04:34:37;101164.81;;;17.83;92.75
63700;BME280;49845;47.130;142.766;2023-08-30T04:37:07;101161.34;;;17.81;93.32
63700;BME280;49845;47.130;142.766;2023-08-30T04:39:38;101146.66;;;17.71;92.11
63700;BME280;49845;47.130;142.766;2023-08-30T04:42:08;101161.53;;;17.75;92.23
63700;BME280;49845;47.130;142.766;2023-08-30T04:44:40;101164.91;;;17.78;93.73
63700;BME280;49845;47.130;142.766;2023-08-30T04:47:11;101155.94;;;17.84;94.24
63700;BME280;49845;47.130;142.766;2023-08-30T04:49:41;101164.41;;;17.95;95.02
63700;BME280;49845;47.130;142.766;2023-08-30T04:52:12;101144.88;;;17.99;94.96
63700;BME280;49845;47.130;142.766;2023-08-30T04:54:42;101143.97;;;18.00;94.36
63700;BME280;49845;47.130;142.766;2023-08-30T04:57:14;101144.47;;;18.11;94.66
63700;BME280;49845;47.130;142.766;2023-08-30T04:59:46;101143.94;;;18.27;95.76
63700;BME280;49845;47.130;142.766;2023-08-30T05:02:17;101144.91;;;18.24;92.26
63700;BME280;49845;47.130;142.766;2023-08-30T05:04:47;101151.88;;;18.27;92.36
63700;BME280;49845;47.130;142.766;2023-08-30T05:07:18;101161.75;;;18.22;91.75
63700;BME280;49845;47.130;142.766;2023-08-30T05:09:49;101154.63;;;18.24;93.31
63700;BME280;49845;47.130;142.766;2023-08-30T05:12:20;101156.28;;;18.28;94.49
63700;BME280;49845;47.130;142.766;2023-08-30T05:14:52;101140.50;;;18.25;94.81
63700;BME280;49845;47.130;142.766;2023-08-30T05:17:22;101136.34;;;18.18;94.91
63700;BME280;49845;47.130;142.766;2023-08-30T05:19:53;101130.41;;;18.09;97.47
63700;BME280;49845;47.130;142.766;2023-08-30T05:22:24;101144.88;;;17.99;98.93
63700;BME280;49845;47.130;142.766;2023-08-30T05:24:54;101134.63;;;17.90;98.51
63700;BME280;49845;47.130;142.766;2023-08-30T05:27:25;101124.22;;;17.84;96.28
63700;BME280;49845;47.130;142.766;2023-08-30T05:29:56;101120.75;;;17.82;95.98
63700;BME280;49845;47.130;142.766;2023-08-30T05:32:27;101117.22;;;17.83;98.05
63700;BME280;49845;47.130;142.766;2023-08-30T05:34:58;101069.16;;;17.42;94.90
63700;BME280;49845;47.130;142.766;2023-08-30T05:37:29;101113.38;;;17.65;92.80
63700;BME280;49845;47.130;142.766;2023-08-30T05:39:59;101112.59;;;17.61;91.50
63700;BME280;49845;47.130;142.766;2023-08-30T05:42:30;101088.78;;;17.35;89.49
63700;BME280;49845;47.130;142.766;2023-08-30T05:45:02;101097.81;;;17.28;88.28
63700;BME280;49845;47.130;142.766;2023-08-30T05:47:33;101097.97;;;17.21;87.10
63700;BME280;49845;47.130;142.766;2023-08-30T05:50:04;101106.94;;;17.17;88.09
63700;BME280;49845;47.130;142.766;2023-08-30T05:52:34;101113.84;;;17.21;89.63
63700;BME280;49845;47.130;142.766;2023-08-30T05:55:09;101101.66;;;17.17;85.64
63700;BME280;49845;47.130;142.766;2023-08-30T05:57:40;101093.75;;;17.16;85.14
63700;BME280;49845;47.130;142.766;2023-08-30T06:00:13;101094.63;;;17.16;84.07
63700;BME280;49845;47.130;142.766;2023-08-30T06:02:43;101082.97;;;17.23;82.80
63700;BME280;49845;47.130;142.766;2023-08-30T06:05:14;101081.88;;;17.31;84.13
63700;BME280;49845;47.130;142.766;2023-08-30T06:07:45;101081.28;;;17.49;86.41
63700;BME280;49845;47.130;142.766;2023-08-30T06:10:15;101077.81;;;17.47;87.24
63700;BME280;49845;47.130;142.766;2023-08-30T06:12:46;101077.63;;;17.53;85.71
63700;BME280;49845;47.130;142.766;2023-08-30T06:15:18;101077.28;;;17.64;86.67
63700;BME280;49845;47.130;142.766;2023-08-30T06:17:49;101073.66;;;17.66;86.00
63700;BME280;49845;47.130;142.766;2023-08-30T06:20:20;101067.53;;;17.66;86.16
63700;BME280;49845;47.130;142.766;2023-08-30T06:22:50;101064.72;;;17.71;86.54
63700;BME280;49845;47.130;142.766;2023-08-30T06:25:21;101069.75;;;17.80;86.39
63700;BME280;49845;47.130;142.766;2023-08-30T06:27:58;101071.47;;;17.81;86.20
63700;BME280;49845;47.130;142.766;2023-08-30T06:30:31;101059.44;;;17.71;84.21
63700;BME280;49845;47.130;142.766;2023-08-30T06:33:02;101077.34;;;17.89;85.49
63700;BME280;49845;47.130;142.766;2023-08-30T06:35:35;101068.59;;;17.87;83.52
63700;BME280;49845;47.130;142.766;2023-08-30T06:38:07;101074.72;;;17.89;84.02
63700;BME280;49845;47.130;142.766;2023-08-30T06:40:43;101074.81;;;17.86;83.76
63700;BME280;49845;47.130;142.766;2023-08-30T06:43:14;101073.81;;;17.90;86.49
63700;BME280;49845;47.130;142.766;2023-08-30T06:45:47;101075.63;;;17.88;87.30
63700;BME280;49845;47.130;142.766;2023-08-30T06:48:17;101073.09;;;17.85;88.98
63700;BME280;49845;47.130;142.766;2023-08-30T06:50:48;101074.81;;;17.86;87.24
63700;BME280;49845;47.130;142.766;2023-08-30T06:53:18;101069.63;;;17.83;86.74
63700;BME280;49845;47.130;142.766;2023-08-30T06:55:57;101041.38;;;17.57;86.53
63700;BME280;49845;47.130;142.766;2023-08-30T06:58:28;101068.25;;;17.69;85.41
63700;BME280;49845;47.130;142.766;2023-08-30T07:01:01;101067.88;;;17.55;86.32
63700;BME280;49845;47.130;142.766;2023-08-30T07:03:31;101059.84;;;17.58;87.31
63700;BME280;49845;47.130;142.766;2023-08-30T07:06:02;101058.06;;;17.59;85.19
63700;BME280;49845;47.130;142.766;2023-08-30T07:08:32;101059.84;;;17.58;85.95
63700;BME280;49845;47.130;142.766;2023-08-30T07:11:03;101063.59;;;17.51;82.26
63700;BME280;49845;47.130;142.766;2023-08-30T07:13:46;101063.69;;;17.48;83.34
63700;BME280;49845;47.130;142.766;2023-08-30T07:16:18;101057.16;;;17.32;84.44
63700;BME280;49845;47.130;142.766;2023-08-30T07:18:49;101080.13;;;17.30;86.62
63700;BME280;49845;47.130;142.766;2023-08-30T07:21:19;101078.69;;;17.19;87.08
63700;BME280;49845;47.130;142.766;2023-08-30T07:23:50;101075.41;;;17.11;88.04
63700;BME280;49845;47.130;142.766;2023-08-30T07:26:20;101091.94;;;17.18;89.55
63700;BME280;49845;47.130;142.766;2023-08-30T07:28:51;101087.56;;;17.17;90.75
63700;BME280;49845;47.130;142.766;2023-08-30T07:31:23;101085.81;;;17.17;91.24
63700;BME280;49845;47.130;142.766;2023-08-30T07:33:53;101074.78;;;17.03;89.42
63700;BME280;49845;47.130;142.766;2023-08-30T07:36:25;101094.09;;;17.05;89.75
63700;BME280;49845;47.130;142.766;2023-08-30T07:39:13;101076.75;;;16.96;89.19
63700;BME280;49845;47.130;142.766;2023-08-30T07:41:44;101078.88;;;16.84;89.05
63700;BME280;49845;47.130;142.766;2023-08-30T07:44:14;101082.50;;;16.79;89.51
63700;BME280;49845;47.130;142.766;2023-08-30T07:46:46;101073.91;;;16.73;88.89
63700;BME280;49845;47.130;142.766;2023-08-30T07:49:18;101074.91;;;16.67;88.05
63700;BME280;49845;47.130;142.766;2023-08-30T07:51:48;101075.94;;;16.63;89.11
63700;BME280;49845;47.130;142.766;2023-08-30T07:54:19;101064.66;;;16.58;90.95
63700;BME280;49845;47.130;142.766;2023-08-30T07:56:50;101071.81;;;16.53;90.79
63700;BME280;49845;47.130;142.766;2023-08-30T07:59:22;101080.56;;;16.55;92.26
63700;BME280;49845;47.130;142.766;2023-08-30T08:01:56;101073.53;;;16.54;93.45
63700;BME280;49845;47.130;142.766;2023-08-30T08:04:27;101066.69;;;16.47;92.71
63700;BME280;49845;47.130;142.766;2023-08-30T08:06:57;101065.06;;;16.43;92.55
63700;BME280;49845;47.130;142.766;2023-08-30T08:09:29;101073.06;;;16.39;93.75
63700;BME280;49845;47.130;142.766;2023-08-30T08:11:59;101065.13;;;16.39;96.53
63700;BME280;49845;47.130;142.766;2023-08-30T08:14:30;101066.03;;;16.40;96.64
63700;BME280;49845;47.130;142.766;2023-08-30T08:17:02;101052.13;;;16.33;97.02
63700;BME280;49845;47.130;142.766;2023-08-30T08:19:34;101064.19;;;16.42;98.29
63700;BME280;49845;47.130;142.766;2023-08-30T08:22:08;101059.81;;;16.43;97.89
63700;BME280;49845;47.130;142.766;2023-08-30T08:24:39;101070.34;;;16.43;97.98
63700;BME280;49845;47.130;142.766;2023-08-30T08:27:12;101059.09;;;16.36;96.34
63700;BME280;49845;47.130;142.766;2023-08-30T08:29:43;101055.94;;;16.23;96.40
63700;BME280;49845;47.130;142.766;2023-08-30T08:32:15;101060.69;;;16.09;97.11
63700;BME280;49845;47.130;142.766;2023-08-30T08:34:46;101057.31;;;16.04;98.60
63700;BME280;49845;47.130;142.766;2023-08-30T08:37:17;101047.94;;;15.93;99.79
63700;BME280;49845;47.130;142.766;2023-08-30T08:39:47;101040.34;;;15.81;99.48
63700;BME280;49845;47.130;142.766;2023-08-30T08:42:19;101012.56;;;15.68;100.00
63700;BME280;49845;47.130;142.766;2023-08-30T08:44:51;101051.44;;;15.92;100.00
63700;BME280;49845;47.130;142.766;2023-08-30T08:47:25;101047.94;;;15.93;100.00
63700;BME280;49845;47.130;142.766;2023-08-30T08:49:57;101040.03;;;15.93;100.00
63700;BME280;49845;47.130;142.766;2023-08-30T08:52:28;101045.13;;;16.00;100.00
63700;BME280;49845;47.130;142.766;2023-08-30T08:55:18;101034.75;;;15.93;100.00
63700;BME280;49845;47.130;142.766;2023-08-30T08:57:49;101017.44;;;15.83;100.00
63700;BME280;49845;47.130;142.766;2023-08-30T09:00:21;101053.72;;;16.08;100.00
63700;BME280;49845;47.130;142.766;2023-08-30T09:03:05;101069.44;;;16.11;100.00
63700;BME280;49845;47.130;142.766;2023-08-30T09:05:59;101066.06;;;16.06;100.00
63700;BME280;49845;47.130;142.766;2023-08-30T09:08:32;101059.31;;;15.95;100.00
63700;BME280;49845;47.130;142.766;2023-08-30T09:11:03;101061.03;;;15.96;100.00
63700;BME280;49845;47.130;142.766;2023-08-30T09:13:35;101054.25;;;15.86;100.00
63700;BME280;49845;47.130;142.766;2023-08-30T09:16:15;101057.81;;;15.85;100.00
63700;BME280;49845;47.130;142.766;2023-08-30T09:18:59;101057.94;;;15.79;100.00
63700;BME280;49845;47.130;142.766;2023-08-30T09:21:38;101064.81;;;15.86;100.00
63700;BME280;49845;47.130;142.766;2023-08-30T09:24:09;101062.91;;;15.91;100.00
63700;BME280;49845;47.130;142.766;2023-08-30T09:26:50;101064.03;;;15.83;100.00
63700;BME280;49845;47.130;142.766;2023-08-30T09:29:22;101064.97;;;15.80;100.00
63700;BME280;49845;47.130;142.766;2023-08-30T09:31:56;101077.31;;;15.78;100.00
63700;BME280;49845;47.130;142.766;2023-08-30T09:34:29;101091.16;;;15.86;100.00
63700;BME280;49845;47.130;142.766;2023-08-30T09:37:01;101093.81;;;15.85;100.00
63700;BME280;49845;47.130;142.766;2023-08-30T09:39:35;101085.06;;;15.84;100.00
63700;BME280;49845;47.130;142.766;2023-08-30T09:42:07;101092.97;;;15.84;100.00
63700;BME280;49845;47.130;142.766;2023-08-30T09:44:42;101086.84;;;15.82;100.00
63700;BME280;49845;47.130;142.766;2023-08-30T09:47:14;101080.78;;;15.80;100.00
63700;BME280;49845;47.130;142.766;2023-08-30T09:49:48;101099.97;;;15.85;100.00
63700;BME280;49845;47.130;142.766;2023-08-30T09:52:23;101075.63;;;15.76;100.00
63700;BME280;49845;47.130;142.766;2023-08-30T09:54:56;101085.16;;;15.80;100.00
63700;BME280;49845;47.130;142.766;2023-08-30T09:57:29;101074.75;;;15.75;100.00
63700;BME280;49845;47.130;142.766;2023-08-30T10:00:01;101080.69;;;15.83;100.00
63700;BME280;49845;47.130;142.766;2023-08-30T10:02:34;101076.38;;;15.81;100.00
63700;BME280;49845;47.130;142.766;2023-08-30T10:05:17;101070.28;;;15.77;100.00
63700;BME280;49845;47.130;142.766;2023-08-30T10:07:55;101070.50;;;15.68;100.00
63700;BME280;49845;47.130;142.766;2023-08-30T10:10:27;101071.28;;;15.73;100.00
63700;BME280;49845;47.130;142.766;2023-08-30T10:12:59;101078.44;;;15.66;100.00
63700;BME280;49845;47.130;142.766;2023-08-30T10:15:58;101085.75;;;15.55;100.00
63700;BME280;49845;47.130;142.766;2023-08-30T10:18:33;101065.84;;;15.43;100.00
63700;BME280;49845;47.130;142.766;2023-08-30T10:21:23;100981.28;;;14.81;100.00
63700;BME280;49845;47.130;142.766;2023-08-30T10:23:58;101071.00;;;15.46;100.00
63700;BME280;49845;47.130;142.766;2023-08-30T10:26:54;101079.75;;;15.48;100.00
63700;BME280;49845;47.130;142.766;2023-08-30T10:29:28;101076.28;;;15.46;100.00
63700;BME280;49845;47.130;142.766;2023-08-30T10:32:03;101081.56;;;15.46;100.00
63700;BME280;49845;47.130;142.766;2023-08-30T10:34:36;101086.97;;;15.40;100.00
63700;BME280;49845;47.130;142.766;2023-08-30T10:37:11;101085.31;;;15.36;100.00
63700;BME280;49845;47.130;142.766;2023-08-30T10:39:47;101078.44;;;15.29;100.00
63700;BME280;49845;47.130;142.766;2023-08-30T10:42:22;101058.53;;;15.17;100.00
63700;BME280;49845;47.130;142.766;2023-08-30T10:44:59;101082.94;;;15.25;100.00
63700;BME280;49845;47.130;142.766;2023-08-30T10:47:41;101085.50;;;15.27;100.00
63700;BME280;49845;47.130;142.766;2023-08-30T10:50:16;101104.78;;;15.27;100.00
63700;BME280;49845;47.130;142.766;2023-08-30T10:52:57;101099.72;;;15.20;100.00
63700;BME280;49845;47.130;142.766;2023-08-30T10:55:31;101093.56;;;15.19;100.00
63700;BME280;49845;47.130;142.766;2023-08-30T10:58:03;101103.25;;;15.19;100.00
63700;BME280;49845;47.130;142.766;2023-08-30T11:00:35;101101.38;;;15.24;100.00
63700;BME280;49845;47.130;142.766;2023-08-30T11:03:11;101087.47;;;15.17;100.00
63700;BME280;49845;47.130;142.766;2023-08-30T11:05:47;101065.59;;;15.15;100.00
63700;BME280;49845;47.130;142.766;2023-08-30T11:08:21;101080.31;;;15.24;100.00
63700;BME280;49845;47.130;142.766;2023-08-30T11:11:02;101068.00;;;15.26;100.00
63700;BME280;49845;47.130;142.766;2023-08-30T11:13:35;101055.59;;;15.29;100.00
63700;BME280;49845;47.130;142.766;2023-08-30T11:16:07;101069.31;;;15.44;100.00
63700;BME280;49845;47.130;142.766;2023-08-30T11:18:41;101074.50;;;15.47;100.00
63700;BME280;49845;47.130;142.766;2023-08-30T11:21:13;101070.00;;;15.52;100.00
63700;BME280;49845;47.130;142.766;2023-08-30T11:23:47;101056.72;;;15.57;100.00
63700;BME280;49845;47.130;142.766;2023-08-30T11:26:20;101046.19;;;15.57;100.00
63700;BME280;49845;47.130;142.766;2023-08-30T11:28:51;101033.13;;;15.52;100.00
63700;BME280;49845;47.130;142.766;2023-08-30T11:31:23;101020.06;;;15.47;100.00
63700;BME280;49845;47.130;142.766;2023-08-30T11:33:57;100990.53;;;15.35;100.00
63700;BME280;49845;47.130;142.766;2023-08-30T11:36:30;100999.06;;;15.44;100.00
63700;BME280;49845;47.130;142.766;2023-08-30T11:39:05;100997.34;;;15.43;100.00
63700;BME280;49845;47.130;142.766;2023-08-30T11:41:38;100976.72;;;15.25;100.00
63700;BME280;49845;47.130;142.766;2023-08-30T11:44:10;100995.84;;;15.33;100.00
63700;BME280;49845;47.130;142.766;2023-08-30T11:46:42;100996.81;;;15.29;100.00
63700;BME280;49845;47.130;142.766;2023-08-30T11:49:14;100982.88;;;15.25;100.00
63700;BME280;49845;47.130;142.766;2023-08-30T11:51:47;100970.94;;;15.10;100.00
63700;BME280;49845;47.130;142.766;2023-08-30T11:54:20;100998.22;;;15.06;100.00
63700;BME280;49845;47.130;142.766;2023-08-30T11:56:52;100996.72;;;14.96;100.00
63700;BME280;49845;47.130;142.766;2023-08-30T11:59:27;100991.53;;;14.93;100.00
63700;BME280;49845;47.130;142.766;2023-08-30T12:01:59;101000.31;;;14.92;100.00
63700;BME280;49845;47.130;142.766;2023-08-30T12:04:31;101004.88;;;14.85;100.00
63700;BME280;49845;47.130;142.766;2023-08-30T12:07:02;101000.53;;;14.83;100.00
63700;BME280;49845;47.130;142.766;2023-08-30T12:09:35;100991.66;;;14.87;100.00
63700;BME280;49845;47.130;142.766;2023-08-30T12:12:08;101007.31;;;14.93;100.00
63700;BME280;49845;47.130;142.766;2023-08-30T12:14:42;100995.00;;;14.95;100.00
63700;BME280;49845;47.130;142.766;2023-08-30T12:17:13;100961.66;;;14.94;100.00
63700;BME280;49845;47.130;142.766;2023-08-30T12:19:45;100958.06;;;14.98;100.00
63700;BME280;49845;47.130;142.766;2023-08-30T12:22:17;100957.91;;;15.04;100.00
63700;BME280;49845;47.130;142.766;2023-08-30T12:24:51;100964.66;;;15.16;100.00
63700;BME280;49845;47.130;142.766;2023-08-30T12:27:22;100959.38;;;15.18;100.00
63700;BME280;49845;47.130;142.766;2023-08-30T12:29:54;100952.28;;;15.20;100.00
63700;BME280;49845;47.130;142.766;2023-08-30T12:32:26;100925.88;;;14.87;100.00
63700;BME280;49845;47.130;142.766;2023-08-30T12:34:58;100959.38;;;15.18;100.00
63700;BME280;49845;47.130;142.766;2023-08-30T12:37:30;100928.28;;;14.96;100.00
63700;BME280;49845;47.130;142.766;2023-08-30T12:40:05;100953.38;;;15.11;100.00
63700;BME280;49845;47.130;142.766;2023-08-30T12:42:37;100944.00;;;14.99;100.00
63700;BME280;49845;47.130;142.766;2023-08-30T12:45:09;100951.03;;;15.00;100.00
63700;BME280;49845;47.130;142.766;2023-08-30T12:47:41;100937.69;;;15.06;100.00
63700;BME280;49845;47.130;142.766;2023-08-30T12:50:13;100936.66;;;15.14;100.00